Flood From: 24-02-2018 06:00 Until: 25-02-2018 06:00 warning for: Flood Level: Yellow info button

Although rather usual in this region, locally or potentially dangerous phenomena are expected. (such as local winds, summer thunderstorms, rising streams or high waves) Be aware and pay attention to the latest weather updates, especially if you carry out activities exposed to weather or close to a stream or shoreline. 


Meteo18 Weather Cam more information Meteo18 Weather Cam


Thunder radar more information blitzortung!


Rain radar more information rain snow radar


Visit our other weather sites:

Template documentation
and downloads

And another site



Weather Underground History page Text

Daily Summary for December 3, 2017 Units:  Metric    English   Both
« Previous Day
Next Day »
Daily Weekly Monthly Yearly Custom
  High: Low: Average:
Temperature: -17.8 °C -19.3 °C -18.4 °C
Dew Point: -17.8 °C -19.8 °C -18.9 °C
Humidity: Humidity % 91 % 93 %
Wind Speed: 0 km/h 0 km/h 6.4 km/h
Wind Gust: 0 km/h - -
Wind:- - SW
Pressure: 0 hPa 34808.1 hPa -
Precipitation: 0 mm    
Historical Graphs
 
 
Tabular Data for December 3, 2017
Time Temperature Dew Point Pressure Wind Wind Speed Wind Gust Humidity Rainfall Rate (Hourly)
-17.8 °C -17.8 °C 0 hPa Calm     Humidity % 0 mm
00:07 -18.3 °C -18.9 °C 34808.1 hPa North 28.5 km/h 28.5 km/h 92 % 0 mm
00:12 -18.3 °C -18.9 °C 34808.1 hPa NNW 10.3 km/h 28.5 km/h 92 % 0 mm
00:17 -18.3 °C -18.9 °C 34808.1 hPa NNW 15.6 km/h 28.5 km/h 92 % 0 mm
00:32 -18.4 °C -19 °C 34818.2 hPa North 15.6 km/h 31.1 km/h 92 % 0 mm
00:37 -18.4 °C -19 °C 34818.2 hPa NE 12.9 km/h 31.1 km/h 92 % 0 mm
00:42 -18.4 °C -19.1 °C 34818.2 hPa North 20.8 km/h 25.9 km/h 92 % 0 mm
00:47 -18.4 °C -19.1 °C 34818.2 hPa NNE 18.2 km/h 25.9 km/h 92 % 0 mm
00:52 -18.4 °C -19.1 °C 34818.2 hPa NW 12.9 km/h 25.9 km/h 92 % 0 mm
01:12 -18.5 °C -19.1 °C 34818.2 hPa NNW 12.9 km/h 28.5 km/h 93 % 0 mm
01:22 -18.5 °C -19.1 °C 34818.2 hPa North 12.9 km/h 31.1 km/h 93 % 0 mm
01:27 -18.5 °C -19.1 °C 34818.2 hPa North 7.7 km/h 31.1 km/h 93 % 0 mm
01:32 -18.5 °C -19.1 °C 34818.2 hPa North 12.9 km/h 25.9 km/h 93 % 0 mm
01:37 -18.5 °C -19.1 °C 34818.2 hPa NNW 5.1 km/h 25.9 km/h 93 % 0 mm
01:52 -18.6 °C -19.1 °C 34818.2 hPa NNW 7.7 km/h 18.2 km/h 93 % 0 mm
02:02 -18.6 °C -19.1 °C 34818.2 hPa NNE 5.1 km/h 20.8 km/h 93 % 0 mm
02:12 -18.6 °C -19.1 °C 34818.2 hPa NNW 5.1 km/h 20.8 km/h 93 % 0 mm
02:17 -18.6 °C -19.1 °C 34808.1 hPa North 5.1 km/h 15.6 km/h 93 % 0 mm
02:22 -18.6 °C -19.1 °C 34808.1 hPa Calm   15.6 km/h 93 % 0 mm
02:27 -18.6 °C -19.1 °C 34808.1 hPa North 5.1 km/h 15.6 km/h 93 % 0 mm
02:32 -18.6 °C -19.1 °C 34818.2 hPa NNW 2.6 km/h 7.7 km/h 93 % 0 mm
02:37 -18.6 °C -19.2 °C 34808.1 hPa Calm   5.1 km/h 92 % 0 mm
02:52 -18.7 °C -19.3 °C 34818.2 hPa Calm   15.6 km/h 92 % 0 mm
02:57 -18.7 °C -19.3 °C 34818.2 hPa North 5.1 km/h 15.6 km/h 92 % 0 mm
03:12 -18.7 °C -19.3 °C 34831.8 hPa NNW 5.1 km/h 18.2 km/h 92 % 0 mm
03:17 -18.7 °C -19.3 °C 34818.2 hPa NW 2.6 km/h 18.2 km/h 92 % 0 mm
03:22 -18.7 °C -19.3 °C 34831.8 hPa NNW 2.6 km/h 18.2 km/h 92 % 0 mm
03:27 -18.7 °C -19.3 °C 34831.8 hPa NNE 5.1 km/h 12.9 km/h 92 % 0 mm
03:32 -18.7 °C -19.3 °C 34818.2 hPa NNW 5.1 km/h 10.3 km/h 92 % 0 mm
03:37 -18.7 °C -19.3 °C 34818.2 hPa NNW 5.1 km/h 18.2 km/h 92 % 0 mm
03:42 -18.7 °C -19.3 °C 34818.2 hPa NNW 5.1 km/h 18.2 km/h 92 % 0 mm
03:47 -18.7 °C -19.3 °C 34818.2 hPa NW 2.6 km/h 18.2 km/h 92 % 0 mm
03:52 -18.8 °C -19.4 °C 34818.2 hPa NNW 2.6 km/h 18.2 km/h 92 % 0 mm
03:57 -18.8 °C -19.4 °C 34818.2 hPa NNW 2.6 km/h 18.2 km/h 92 % 0 mm
04:02 -18.8 °C -19.4 °C 34818.2 hPa NNW 2.6 km/h 15.6 km/h 92 % 0 mm
04:07 -18.7 °C -19.3 °C 34831.8 hPa Calm   15.6 km/h 92 % 0 mm
04:12 -18.7 °C -19.3 °C 34831.8 hPa Calm   5.1 km/h 92 % 0 mm
04:17 -18.7 °C -19.3 °C 34831.8 hPa WNW 2.6 km/h 5.1 km/h 92 % 0 mm
04:22 -18.8 °C -19.4 °C 34831.8 hPa Calm   12.9 km/h 92 % 0 mm
04:32 -18.8 °C -19.4 °C 34831.8 hPa WNW 12.9 km/h 12.9 km/h 92 % 0 mm
04:42 -18.9 °C -19.6 °C 34818.2 hPa West 2.6 km/h 12.9 km/h 92 % 0 mm
04:47 -18.9 °C -19.6 °C 34818.2 hPa West 2.6 km/h 12.9 km/h 92 % 0 mm
04:52 -19 °C -19.6 °C 34818.2 hPa West 5.1 km/h 10.3 km/h 93 % 0 mm
04:57 -19 °C -19.6 °C 34831.8 hPa Calm   12.9 km/h 92 % 0 mm
05:02 -19 °C -19.6 °C 34831.8 hPa WNW 2.6 km/h 12.9 km/h 93 % 0 mm
05:12 -19 °C -19.6 °C 34831.8 hPa Calm   7.7 km/h 93 % 0 mm
05:17 -19 °C -19.6 °C 34818.2 hPa Calm   5.1 km/h 93 % 0 mm
05:22 -19 °C -19.6 °C 34831.8 hPa Calm     93 % 0 mm
05:27 -19 °C -19.6 °C 34831.8 hPa Calm   2.6 km/h 93 % 0 mm
05:37 -19 °C -19.6 °C 34831.8 hPa Calm   7.7 km/h 93 % 0 mm
05:42 -19 °C -19.6 °C 34831.8 hPa Calm   7.7 km/h 93 % 0 mm
05:47 -19 °C -19.6 °C 34831.8 hPa Calm   7.7 km/h 93 % 0 mm
05:52 -19 °C -19.6 °C 34831.8 hPa WNW 5.1 km/h 5.1 km/h 93 % 0 mm
06:07 -18.9 °C -19.5 °C 34841.9 hPa Calm   7.7 km/h 93 % 0 mm
06:12 -18.9 °C -19.5 °C 34831.8 hPa NW 2.6 km/h 5.1 km/h 93 % 0 mm
06:17 -18.9 °C -19.5 °C 34831.8 hPa Calm   5.1 km/h 93 % 0 mm
06:27 -19 °C -19.6 °C 34831.8 hPa Calm   2.6 km/h 93 % 0 mm
06:32 -19 °C -19.6 °C 34841.9 hPa Calm   2.6 km/h 93 % 0 mm
06:42 -19.1 °C -19.6 °C 34841.9 hPa Calm   5.1 km/h 93 % 0 mm
07:02 -19.1 °C -19.7 °C 34841.9 hPa Calm   5.1 km/h 93 % 0 mm
07:17 -19.2 °C -19.8 °C 34841.9 hPa Calm   7.7 km/h 93 % 0 mm
07:22 -19.2 °C -19.8 °C 34841.9 hPa Calm   7.7 km/h 93 % 0 mm
07:32 -19.2 °C -19.8 °C 34852.1 hPa Calm   5.1 km/h 93 % 0 mm
07:42 -19.2 °C -19.8 °C 34852.1 hPa WSW 5.1 km/h 7.7 km/h 93 % 0 mm
07:47 -19.2 °C -19.8 °C 34852.1 hPa Calm   7.7 km/h 93 % 0 mm
07:52 -19.2 °C -19.8 °C 34852.1 hPa Calm   7.7 km/h 93 % 0 mm
07:57 -19.2 °C -19.8 °C 34852.1 hPa Calm   7.7 km/h 93 % 0 mm
08:02 -19.2 °C -19.8 °C 34852.1 hPa Calm   5.1 km/h 93 % 0 mm
08:07 -19.2 °C -19.8 °C 34852.1 hPa Calm   5.1 km/h 93 % 0 mm
08:17 -19.2 °C -19.8 °C 34852.1 hPa Calm   5.1 km/h 93 % 0 mm
08:27 -19.2 °C -19.8 °C 34852.1 hPa South 2.6 km/h 5.1 km/h 93 % 0 mm
08:42 -19.2 °C -19.7 °C 34865.6 hPa SSW 2.6 km/h 12.9 km/h 94 % 0 mm
08:52 -19.2 °C -19.7 °C 34865.6 hPa Calm   10.3 km/h 94 % 0 mm
08:57 -19.2 °C -19.7 °C 34865.6 hPa Calm   10.3 km/h 94 % 0 mm
09:07 -19.2 °C -19.7 °C 34875.8 hPa Calm   2.6 km/h 94 % 0 mm
09:17 -19.1 °C -19.6 °C 34875.8 hPa West 7.7 km/h 7.7 km/h 94 % 0 mm
09:22 -19.2 °C -19.6 °C 34875.8 hPa Calm   10.3 km/h 94 % 0 mm
09:32 -19.3 °C -19.7 °C 34875.8 hPa WNW 2.6 km/h 12.9 km/h 94 % 0 mm
09:37 -19.3 °C -19.7 °C 34875.8 hPa West 2.6 km/h 12.9 km/h 94 % 0 mm
09:42 -19.2 °C -19.7 °C 34875.8 hPa Calm   12.9 km/h 94 % 0 mm
09:47 -19.2 °C -19.7 °C 34875.8 hPa West 2.6 km/h 12.9 km/h 94 % 0 mm
09:57 -19.3 °C -19.8 °C 34875.8 hPa SW 5.1 km/h 20.8 km/h 93 % 0 mm
10:02 -19.3 °C -19.8 °C 34875.8 hPa West 7.7 km/h 20.8 km/h 94 % 0 mm
10:07 -19.3 °C -19.8 °C 34889.3 hPa SW 2.6 km/h 18.2 km/h 94 % 0 mm
10:12 -19.3 °C -19.7 °C 34889.3 hPa WSW 12.9 km/h 20.8 km/h 94 % 0 mm
10:17 -19.3 °C -19.7 °C 34875.8 hPa SW 5.1 km/h 20.8 km/h 94 % 0 mm
10:22 -19.2 °C -19.6 °C 34889.3 hPa SW 7.7 km/h 20.8 km/h 94 % 0 mm
10:32 -19.2 °C -19.7 °C 34889.3 hPa SW 15.6 km/h 20.8 km/h 94 % 0 mm
10:37 -19.2 °C -19.7 °C 34889.3 hPa WSW 5.1 km/h 20.8 km/h 94 % 0 mm
10:42 -19.3 °C -19.7 °C 34889.3 hPa SW 12.9 km/h 15.6 km/h 94 % 0 mm
10:52 -19.3 °C -19.7 °C 34889.3 hPa SSW 7.7 km/h 18.2 km/h 94 % 0 mm
10:57 -19.2 °C -19.7 °C 34889.3 hPa SW 10.3 km/h 18.2 km/h 94 % 0 mm
11:02 -19.2 °C -19.7 °C 34889.3 hPa SSW 10.3 km/h 20.8 km/h 94 % 0 mm
11:07 -19.1 °C -19.6 °C 34889.3 hPa SW 2.6 km/h 20.8 km/h 94 % 0 mm
11:12 -19.1 °C -19.5 °C 34889.3 hPa SSW 12.9 km/h 18.2 km/h 94 % 0 mm
11:17 -19 °C -19.4 °C 34889.3 hPa WSW 2.6 km/h 18.2 km/h 94 % 0 mm
11:27 -19 °C -19.6 °C 34889.3 hPa SW 5.1 km/h 18.2 km/h 93 % 0 mm
11:32 -19 °C -19.6 °C 34889.3 hPa SSW 5.1 km/h 20.8 km/h 93 % 0 mm
11:37 -19 °C -19.6 °C 34889.3 hPa Calm   20.8 km/h 93 % 0 mm
11:42 -18.9 °C -19.5 °C 34889.3 hPa WSW 15.6 km/h 20.8 km/h 93 % 0 mm
11:47 -18.9 °C -19.5 °C 34889.3 hPa SW 7.7 km/h 18.2 km/h 93 % 0 mm
11:52 -18.9 °C -19.5 °C 34889.3 hPa SW 12.9 km/h 18.2 km/h 93 % 0 mm
11:57 -18.9 °C -19.5 °C 34889.3 hPa SW 5.1 km/h 20.8 km/h 93 % 0 mm
12:02 -18.8 °C -19.4 °C 34889.3 hPa SW 7.7 km/h 20.8 km/h 93 % 0 mm
12:12 -18.8 °C -19.4 °C 34889.3 hPa SW 10.3 km/h 18.2 km/h 92 % 0 mm
12:17 -18.8 °C -19.4 °C 34889.3 hPa SSW 7.7 km/h 18.2 km/h 92 % 0 mm
12:22 -18.8 °C -19.4 °C 34889.3 hPa SW 15.6 km/h 18.2 km/h 92 % 0 mm
12:27 -18.7 °C -19.3 °C 34889.3 hPa SSW 10.3 km/h 18.2 km/h 93 % 0 mm
12:32 -18.7 °C -19.3 °C 34875.8 hPa SSW 10.3 km/h 18.2 km/h 92 % 0 mm
12:42 -18.7 °C -19.3 °C 34875.8 hPa SSW 7.7 km/h 20.8 km/h 92 % 0 mm
12:47 -18.7 °C -19.3 °C 34875.8 hPa SSW 7.7 km/h 18.2 km/h 92 % 0 mm
12:52 -18.7 °C -19.3 °C 34875.8 hPa South 10.3 km/h 15.6 km/h 92 % 0 mm
12:57 -18.7 °C -19.3 °C 34875.8 hPa SSW 15.6 km/h 20.8 km/h 92 % 0 mm
13:02 -18.7 °C -19.3 °C 34875.8 hPa SSW 12.9 km/h 20.8 km/h 92 % 0 mm
13:07 -18.7 °C -19.3 °C 34865.6 hPa SW 10.3 km/h 20.8 km/h 92 % 0 mm
13:17 -18.6 °C -19.2 °C 34865.6 hPa SW 15.6 km/h 18.2 km/h 92 % 0 mm
13:22 -18.6 °C -19.1 °C 34865.6 hPa South 7.7 km/h 18.2 km/h 93 % 0 mm
13:27 -18.6 °C -19.2 °C 34865.6 hPa SSW 7.7 km/h 18.2 km/h 92 % 0 mm
13:32 -18.6 °C -19.2 °C 34865.6 hPa SW 5.1 km/h 20.8 km/h 92 % 0 mm
13:42 -18.6 °C -19.2 °C 34852.1 hPa SW 7.7 km/h 20.8 km/h 92 % 0 mm
13:47 -18.6 °C -19.2 °C 34852.1 hPa SW 15.6 km/h 23.3 km/h 92 % 0 mm
13:52 -18.5 °C -19.1 °C 34852.1 hPa SW 12.9 km/h 23.3 km/h 92 % 0 mm
14:02 -18.5 °C -19.1 °C 34865.6 hPa SW 18.2 km/h 20.8 km/h 92 % 0 mm
14:12 -18.4 °C -19.1 °C 34865.6 hPa SSW 12.9 km/h 18.2 km/h 92 % 0 mm
14:17 -18.4 °C -19 °C 34865.6 hPa WSW 10.3 km/h 18.2 km/h 92 % 0 mm
14:22 -18.3 °C -18.9 °C 34852.1 hPa SSW 18.2 km/h 18.2 km/h 92 % 0 mm
14:32 -18.3 °C -18.9 °C 34865.6 hPa SW 7.7 km/h 23.3 km/h 92 % 0 mm
14:37 -18.3 °C -18.9 °C 34865.6 hPa SW 18.2 km/h 23.3 km/h 92 % 0 mm
14:42 -18.3 °C -19.1 °C 34865.6 hPa SW 10.3 km/h 20.8 km/h 91 % 0 mm
14:47 -18.3 °C -19.1 °C 34865.6 hPa SW 12.9 km/h 20.8 km/h 91 % 0 mm
14:52 -18.3 °C -19 °C 34852.1 hPa SW 20.8 km/h 20.8 km/h 91 % 0 mm
14:57 -18.2 °C -18.9 °C 34852.1 hPa SW 15.6 km/h 20.8 km/h 91 % 0 mm
15:07 -18.2 °C -18.9 °C 34852.1 hPa SW 10.3 km/h 23.3 km/h 91 % 0 mm
15:12 -18.2 °C -18.9 °C 34852.1 hPa SW 20.8 km/h 23.3 km/h 91 % 0 mm
15:17 -18.2 °C -18.9 °C 34852.1 hPa SW 18.2 km/h 23.3 km/h 91 % 0 mm
15:22 -18.2 °C -18.9 °C 34865.6 hPa SW 10.3 km/h 25.9 km/h 91 % 0 mm
15:32 -18.2 °C -18.8 °C 34865.6 hPa SW 20.8 km/h 25.9 km/h 92 % 0 mm
15:37 -18.2 °C -18.8 °C 34865.6 hPa SW 10.3 km/h 25.9 km/h 92 % 0 mm
15:42 -18.2 °C -18.8 °C 34865.6 hPa SW 12.9 km/h 23.3 km/h 92 % 0 mm
15:47 -18.2 °C -18.8 °C 34865.6 hPa SW 10.3 km/h 23.3 km/h 92 % 0 mm
15:52 -18.1 °C -18.7 °C 34865.6 hPa SW 10.3 km/h 23.3 km/h 92 % 0 mm
15:57 -18.1 °C -18.7 °C 34865.6 hPa SW 10.3 km/h 18.2 km/h 92 % 0 mm
16:02 -18.1 °C -18.7 °C 34865.6 hPa SW 5.1 km/h 18.2 km/h 92 % 0 mm
16:12 -18.1 °C -18.7 °C 34865.6 hPa SW 12.9 km/h 18.2 km/h 92 % 0 mm
16:17 -18.1 °C -18.7 °C 34865.6 hPa SSW 15.6 km/h 18.2 km/h 92 % 0 mm
16:22 -18.1 °C -18.7 °C 34852.1 hPa SSW 10.3 km/h 18.2 km/h 92 % 0 mm
16:27 -18 °C -18.6 °C 34852.1 hPa SW 15.6 km/h 20.8 km/h 92 % 0 mm
16:32 -18 °C -18.6 °C 34852.1 hPa SW 18.2 km/h 20.8 km/h 92 % 0 mm
16:37 -18 °C -18.6 °C 34852.1 hPa SW 12.9 km/h 20.8 km/h 92 % 0 mm
16:42 -18 °C -18.6 °C 34852.1 hPa SW 12.9 km/h 23.3 km/h 92 % 0 mm
16:47 -18 °C -18.6 °C 34852.1 hPa WSW 12.9 km/h 23.3 km/h 92 % 0 mm
16:52 -18 °C -18.6 °C 34865.6 hPa SSW 5.1 km/h 23.3 km/h 93 % 0 mm
16:57 -17.9 °C -18.5 °C 34865.6 hPa SW 5.1 km/h 20.8 km/h 93 % 0 mm
17:02 -18 °C -18.6 °C 34865.6 hPa SW 12.9 km/h 20.8 km/h 93 % 0 mm
17:12 -17.9 °C -18.5 °C 34865.6 hPa SW 7.7 km/h 20.8 km/h 93 % 0 mm
17:17 -17.9 °C -18.5 °C 34865.6 hPa WSW 15.6 km/h 20.8 km/h 93 % 0 mm
17:22 -17.9 °C -18.5 °C 34865.6 hPa SW 12.9 km/h 20.8 km/h 93 % 0 mm
17:27 -17.9 °C -18.6 °C 34865.6 hPa SW 7.7 km/h 20.8 km/h 92 % 0 mm
17:32 -17.9 °C -18.4 °C 34865.6 hPa SSW 12.9 km/h 20.8 km/h 93 % 0 mm
17:37 -17.9 °C -18.4 °C 34865.6 hPa SSW 5.1 km/h 20.8 km/h 93 % 0 mm
17:42 -17.9 °C -18.4 °C 34865.6 hPa SW 10.3 km/h 15.6 km/h 93 % 0 mm
17:52 -17.9 °C -18.4 °C 34875.8 hPa SW 5.1 km/h 12.9 km/h 93 % 0 mm
17:57 -17.9 °C -18.4 °C 34875.8 hPa WSW 12.9 km/h 12.9 km/h 93 % 0 mm
18:02 -17.9 °C -18.4 °C 34875.8 hPa SSW 5.1 km/h 12.9 km/h 93 % 0 mm
18:12 -17.9 °C -18.3 °C 34875.8 hPa SW 10.3 km/h 12.9 km/h 94 % 0 mm
18:17 -17.9 °C -18.3 °C 34875.8 hPa SSW 5.1 km/h 12.9 km/h 94 % 0 mm
18:22 -17.9 °C -18.3 °C 34875.8 hPa SSW 2.6 km/h 12.9 km/h 94 % 0 mm
18:32 -17.9 °C -18.3 °C 34875.8 hPa SSW 2.6 km/h 10.3 km/h 95 % 0 mm
18:42 -17.9 °C -18.3 °C 34889.3 hPa SW 5.1 km/h 10.3 km/h 95 % 0 mm
18:47 -17.9 °C -18.3 °C 34889.3 hPa SSW 2.6 km/h 10.3 km/h 95 % 0 mm
18:52 -17.9 °C -18.3 °C 34889.3 hPa SW 5.1 km/h 10.3 km/h 95 % 0 mm
19:02 -17.9 °C -18.2 °C 34889.3 hPa SSW 5.1 km/h 10.3 km/h 96 % 0 mm
19:07 -17.9 °C -18.2 °C 34889.3 hPa SW 7.7 km/h 12.9 km/h 96 % 0 mm
19:12 -17.8 °C -18.2 °C 34889.3 hPa SW 2.6 km/h 12.9 km/h 96 % 0 mm
19:17 -17.8 °C -18.2 °C 34889.3 hPa SW 2.6 km/h 12.9 km/h 96 % 0 mm
19:22 -17.8 °C -18.2 °C 34889.3 hPa SW 7.7 km/h 12.9 km/h 96 % 0 mm
19:27 -17.8 °C -18.2 °C 34889.3 hPa South 7.7 km/h 15.6 km/h 96 % 0 mm
19:32 -17.8 °C -18.2 °C 34889.3 hPa SW 7.7 km/h 15.6 km/h 96 % 0 mm
19:42 -17.8 °C -18.2 °C 34889.3 hPa SSW 5.1 km/h 12.9 km/h 96 % 0 mm
19:47 -17.8 °C -18.1 °C 34889.3 hPa SW 5.1 km/h 12.9 km/h 96 % 0 mm
19:57 -17.7 °C -18.1 °C 34889.3 hPa SSW 7.7 km/h 12.9 km/h 96 % 0 mm
20:02 -17.7 °C -18.1 °C 34889.3 hPa SW 2.6 km/h 12.9 km/h 96 % 0 mm
20:07 -17.7 °C -18.1 °C 34889.3 hPa SW 7.7 km/h 10.3 km/h 96 % 0 mm
20:12 -17.7 °C -18.1 °C 34889.3 hPa SW 7.7 km/h 10.3 km/h 96 % 0 mm
20:17 -17.7 °C -18 °C 34899.5 hPa SSW 2.6 km/h 10.3 km/h 96 % 0 mm
20:22 -17.7 °C -18 °C 34899.5 hPa SSW 2.6 km/h 10.3 km/h 96 % 0 mm
20:27 -17.7 °C -18 °C 34889.3 hPa SSW 2.6 km/h 10.3 km/h 96 % 0 mm
20:32 -17.7 °C -18 °C 34889.3 hPa SW 5.1 km/h 7.7 km/h 96 % 0 mm
20:37 -17.7 °C -18 °C 34889.3 hPa South 5.1 km/h 7.7 km/h 96 % 0 mm
20:42 -17.7 °C -17.9 °C 34889.3 hPa SW 10.3 km/h 15.6 km/h 97 % 0 mm
20:47 -17.6 °C -17.8 °C 34889.3 hPa SSW 5.1 km/h 18.2 km/h 97 % 0 mm
20:57 -17.6 °C -17.8 °C 34889.3 hPa Calm   18.2 km/h 97 % 0 mm
21:02 -17.6 °C -17.8 °C 34889.3 hPa SW 2.6 km/h 15.6 km/h 97 % 0 mm
21:07 -17.6 °C -17.8 °C 34889.3 hPa SSE 5.1 km/h 15.6 km/h 97 % 0 mm
21:17 -17.6 °C -17.8 °C 34889.3 hPa SW 2.6 km/h 10.3 km/h 97 % 0 mm
21:22 -17.6 °C -17.8 °C 34889.3 hPa WSW 5.1 km/h 10.3 km/h 97 % 0 mm
21:27 -17.6 °C -17.8 °C 34889.3 hPa SSW 2.6 km/h 10.3 km/h 97 % 0 mm
21:32 -17.6 °C -17.8 °C 34899.5 hPa SW 5.1 km/h 10.3 km/h 97 % 0 mm
21:37 -17.6 °C -17.8 °C 34899.5 hPa SSW 5.1 km/h 10.3 km/h 97 % 0 mm
21:47 -17.5 °C -17.7 °C 34899.5 hPa SW 5.1 km/h 15.6 km/h 97 % 0 mm
21:52 -17.5 °C -17.7 °C 34899.5 hPa SW 7.7 km/h 15.6 km/h 97 % 0 mm
21:57 -17.4 °C -17.7 °C 34899.5 hPa SW 5.1 km/h 15.6 km/h 97 % 0 mm
22:02 -17.4 °C -17.7 °C 34899.5 hPa SW 5.1 km/h 12.9 km/h 97 % 0 mm
22:07 -17.4 °C -17.7 °C 34899.5 hPa SW 2.6 km/h 12.9 km/h 97 % 0 mm
22:12 -17.4 °C -17.7 °C 34899.5 hPa SW 5.1 km/h 10.3 km/h 97 % 0 mm
22:17 -17.4 °C -17.7 °C 34899.5 hPa Calm   10.3 km/h 97 % 0 mm
22:22 -17.4 °C -17.6 °C 34899.5 hPa Calm   10.3 km/h 97 % 0 mm
22:27 -17.4 °C -17.6 °C 34899.5 hPa SW 2.6 km/h 7.7 km/h 97 % 0 mm
22:32 -17.4 °C -17.6 °C 34909.7 hPa WSW 2.6 km/h 5.1 km/h 97 % 0 mm
22:37 -17.4 °C -17.6 °C 34909.7 hPa Calm   5.1 km/h 97 % 0 mm
22:42 -17.3 °C -17.6 °C 34909.7 hPa Calm   7.7 km/h 97 % 0 mm
22:47 -17.3 °C -17.6 °C 34909.7 hPa WNW 10.3 km/h 10.3 km/h 97 % 0 mm
22:52 -17.3 °C -17.5 °C 34909.7 hPa SW 2.6 km/h 12.9 km/h 97 % 0 mm
22:57 -17.3 °C -17.5 °C 34909.7 hPa South 2.6 km/h 12.9 km/h 97 % 0 mm
23:02 -17.3 °C -17.5 °C 34909.7 hPa South 2.6 km/h 12.9 km/h 97 % 0 mm
23:12 -17.2 °C -17.4 °C 34909.7 hPa Calm   7.7 km/h 97 % 0 mm
23:17 -17.2 °C -17.4 °C 34923.2 hPa SW 2.6 km/h 7.7 km/h 97 % 0 mm
23:22 -17.2 °C -17.4 °C 34923.2 hPa SW 2.6 km/h 7.7 km/h 97 % 0 mm
23:32 -17.2 °C -17.4 °C 34923.2 hPa SW 2.6 km/h 7.7 km/h 97 % 0 mm
23:37 -17.2 °C -17.4 °C 34923.2 hPa SW 2.6 km/h 7.7 km/h 97 % 0 mm
23:42 -17.1 °C -17.3 °C 34923.2 hPa WSW 7.7 km/h 12.9 km/h 97 % 0 mm
23:47 -17.1 °C -17.3 °C 34923.2 hPa Calm   12.9 km/h 97 % 0 mm
23:52 -17.1 °C -17.3 °C 34923.2 hPa Calm   12.9 km/h 97 % 0 mm
23:57 -17.1 °C -17.3 °C 34923.2 hPa Calm   12.9 km/h 97 % 0 mm
Meteo18
Compliments of Weather Underground - 4 mb

Script developed by  Jim McMurry - jmcmurry@mwt.net Adapted for the template by  Wim van der Kuil - Leuven-Template.eu

You find our weather info also at:

European Weather Network

Weather Underground

Equipment we use:

Weather-station
Davis Vue

Weather-program
Meteobridge

Weather-server
Raspberry PI 2 B+

Provider
1 and 1

Davis Vue

Meteobridge

Raspberry PI 2 B+

1 and 1